Terminal Aerodrome Forecast
Issued by NWS Tuscon, AZ

Home | Current Version | Previous Version | Text Only | Print | Product List | Glossary On
Versions: 1 2 3 4 5 6 7 8 9 10 11 12 13 14 15 16 17 18 19 20 21
000
FTUS45 KTWC 192300
TAFDUG
TAF
KDUG 192328Z 2000/2024 30007KT P6SM VCSH SCT040
     FM200200 10004KT P6SM SCT050
     FM201800 17005KT P6SM SCT120=

USA.gov is the U.S. government's official web portal to all federal, state and local government web resources and services.